createdAt,value
2023-05-01T00:01:27.372Z,8.13
2023-05-01T00:06:28.862Z,10.93
2023-05-01T00:11:30.388Z,11.00
2023-05-01T00:16:31.791Z,9.27
2023-05-01T00:21:33.127Z,10.07
2023-05-01T00:26:34.432Z,11.03
2023-05-01T00:31:36.392Z,13.27
2023-05-01T00:36:37.765Z,8.40
2023-05-01T00:41:39.131Z,11.33
2023-05-01T00:46:40.508Z,10.07
2023-05-01T00:51:42.606Z,7.80
2023-05-01T00:56:43.947Z,10.80
2023-05-01T01:01:45.397Z,9.53
2023-05-01T01:06:58.607Z,12.03
2023-05-01T01:12:03.703Z,14.30
2023-05-01T01:17:08.441Z,9.70
2023-05-01T01:22:11.838Z,9.93
2023-05-01T01:27:27.725Z,12.00
2023-05-01T01:32:47.559Z,14.00
2023-05-01T01:37:52.030Z,12.57
2023-05-01T01:42:58.808Z,10.50
2023-05-01T01:48:00.779Z,12.93
2023-05-01T01:53:04.335Z,12.77
2023-05-01T01:58:05.969Z,12.20
2023-05-01T02:03:09.111Z,14.30
2023-05-01T02:08:11.557Z,12.10
2023-05-01T02:13:13.424Z,14.60
2023-05-01T02:18:15.114Z,10.43
2023-05-01T02:23:16.870Z,11.40
2023-05-01T02:28:21.073Z,12.90
2023-05-01T02:33:22.676Z,11.48
2023-05-01T02:38:24.054Z,10.00
2023-05-01T02:43:26.801Z,10.30
2023-05-01T02:48:28.436Z,11.60
2023-05-01T02:53:30.601Z,11.30
2023-05-01T02:58:32.711Z,11.50
2023-05-01T03:03:34.088Z,8.50
2023-05-01T03:08:36.534Z,8.63
2023-05-01T03:13:37.901Z,10.20
2023-05-01T03:18:39.201Z,11.83
2023-05-01T03:23:40.584Z,9.00
2023-05-01T03:28:42.013Z,10.53
2023-05-01T03:33:43.375Z,11.10
2023-05-01T03:38:44.771Z,14.07
2023-05-01T03:43:46.137Z,9.23
2023-05-01T03:48:47.481Z,11.93
2023-05-01T03:53:48.934Z,8.87
2023-05-01T03:58:54.407Z,8.90
2023-05-01T04:03:55.913Z,9.38
2023-05-01T04:08:57.325Z,13.40
2023-05-01T04:13:58.704Z,12.87
2023-05-01T04:19:00.122Z,12.17
2023-05-01T04:24:01.555Z,7.93
2023-05-01T04:29:02.920Z,9.17
2023-05-01T04:34:04.296Z,11.20
2023-05-01T04:39:05.945Z,10.70
2023-05-01T04:44:07.428Z,7.87
2023-05-01T04:49:09.370Z,11.33
2023-05-01T04:54:10.989Z,9.63
2023-05-01T04:59:12.345Z,10.53
2023-05-01T05:04:13.752Z,11.63
2023-05-01T05:09:16.956Z,8.97
2023-05-01T05:14:20.347Z,10.90
2023-05-01T05:19:21.938Z,9.23
2023-05-01T05:24:23.338Z,9.67
2023-05-01T05:29:24.766Z,9.10
2023-05-01T05:34:26.442Z,9.35
2023-05-01T05:39:27.862Z,10.50
2023-05-01T05:44:29.334Z,7.03
2023-05-01T05:49:30.927Z,5.43
2023-05-01T05:54:32.343Z,11.02
2023-05-01T05:59:33.704Z,9.95
2023-05-01T06:04:35.358Z,9.27
2023-05-01T06:09:37.157Z,9.38
2023-05-01T06:14:38.521Z,5.07
2023-05-01T06:19:39.958Z,8.38
2023-05-01T06:24:41.362Z,8.05
2023-05-01T06:29:42.739Z,4.97
2023-05-01T06:34:44.185Z,7.82
2023-05-01T06:39:45.549Z,6.25
2023-05-01T06:44:46.883Z,9.40
2023-05-01T06:49:48.222Z,7.53
2023-05-01T06:54:49.552Z,5.63
2023-05-01T06:59:50.941Z,9.55
2023-05-01T07:04:53.113Z,5.32
2023-05-01T07:09:54.948Z,5.53
2023-05-01T07:14:59.862Z,7.57
2023-05-01T07:20:01.387Z,6.30
2023-05-01T07:25:03.421Z,7.10
2023-05-01T07:30:05.313Z,6.75
2023-05-01T07:35:06.852Z,9.90
2023-05-01T07:40:08.853Z,6.68
2023-05-01T07:45:11.355Z,6.70
2023-05-01T07:50:12.964Z,7.47
2023-05-01T07:55:14.576Z,5.28
2023-05-01T08:00:16.601Z,7.57
2023-05-01T08:05:17.976Z,9.27
2023-05-01T08:10:19.479Z,10.20
2023-05-01T08:15:21.856Z,6.95
2023-05-01T08:20:23.260Z,7.70
2023-05-01T08:25:24.693Z,8.57
2023-05-01T08:30:26.270Z,7.43
2023-05-01T08:35:27.789Z,7.72
2023-05-01T08:40:31.762Z,6.82
2023-05-01T08:45:37.514Z,8.38
2023-05-01T08:50:39.282Z,6.55
2023-05-01T08:55:43.950Z,8.35
2023-05-01T09:00:46.620Z,10.30
2023-05-01T09:05:48.349Z,7.50
2023-05-01T09:10:52.019Z,5.35
2023-05-01T09:15:53.410Z,8.07
2023-05-01T09:20:55.299Z,8.30
2023-05-01T09:25:57.468Z,4.53
2023-05-01T09:30:58.800Z,6.70
2023-05-01T09:36:00.231Z,7.13
2023-05-01T09:41:05.008Z,10.27
2023-05-01T09:46:09.528Z,6.80
2023-05-01T09:51:22.044Z,4.82
2023-05-01T09:56:23.807Z,5.60
2023-05-01T10:01:38.697Z,6.03
2023-05-01T10:06:40.704Z,12.15
2023-05-01T10:11:56.078Z,6.78
2023-05-01T10:16:57.961Z,5.72
2023-05-01T10:21:59.618Z,4.75
2023-05-01T10:27:03.125Z,5.38
2023-05-01T10:32:05.662Z,6.30
2023-05-01T10:37:13.950Z,5.05
2023-05-01T10:42:15.347Z,6.45
2023-05-01T10:47:27.710Z,8.90
2023-05-01T10:52:29.153Z,3.88
2023-05-01T10:57:46.483Z,7.03
2023-05-01T11:02:47.933Z,6.45
2023-05-01T11:08:09.265Z,4.57
2023-05-01T11:13:10.717Z,4.43
2023-05-01T11:18:12.261Z,3.53
2023-05-01T11:23:16.937Z,5.75
2023-05-01T11:28:19.413Z,4.20
2023-05-01T11:33:22.057Z,5.70
2023-05-01T11:38:23.521Z,4.22
2023-05-01T11:43:24.885Z,6.50
2023-05-01T11:48:26.354Z,5.47
2023-05-01T11:53:27.824Z,3.65
2023-05-01T11:58:33.582Z,2.97
2023-05-01T12:03:41.396Z,3.83
2023-05-01T12:08:43.796Z,3.22
2023-05-01T12:13:47.816Z,5.50
2023-05-01T12:18:49.365Z,6.47
2023-05-01T12:23:50.796Z,3.55
2023-05-01T12:28:56.201Z,5.65
2023-05-01T12:33:58.700Z,4.13
2023-05-01T12:39:12.368Z,3.95
2023-05-01T12:44:20.070Z,6.68
2023-05-01T12:49:21.908Z,5.15
2023-05-01T12:54:24.349Z,5.55
2023-05-01T12:59:27.315Z,4.15
2023-05-01T13:04:29.135Z,5.63
2023-05-01T13:09:31.049Z,4.40
2023-05-01T13:14:37.214Z,5.60
2023-05-01T13:19:39.063Z,10.32
2023-05-01T13:24:41.632Z,5.97
2023-05-01T13:29:42.956Z,5.13
2023-05-01T13:34:45.028Z,7.93
2023-05-01T13:39:46.868Z,8.20
2023-05-01T13:44:50.971Z,3.55
2023-05-01T13:49:52.632Z,5.35
2023-05-01T13:54:55.940Z,6.15
2023-05-01T13:59:57.579Z,4.80
2023-05-01T14:05:00.719Z,5.57
2023-05-01T14:10:03.466Z,5.85
2023-05-01T14:15:08.645Z,8.90
2023-05-01T14:20:11.236Z,7.32
2023-05-01T14:25:22.284Z,5.88
2023-05-01T14:30:33.337Z,6.53
2023-05-01T14:35:35.880Z,9.43
2023-05-01T14:40:39.378Z,8.20
2023-05-01T14:45:41.914Z,5.72
2023-05-01T14:50:43.240Z,14.55
2023-05-01T14:55:44.640Z,3.47
2023-05-01T15:00:46.105Z,7.75
2023-05-01T15:05:47.513Z,7.07
2023-05-01T15:10:48.922Z,5.97
2023-05-01T15:15:50.335Z,4.68
2023-05-01T15:20:51.756Z,5.95
2023-05-01T15:25:53.348Z,5.57
2023-05-01T15:30:54.742Z,2.28
2023-05-01T15:35:56.128Z,3.55
2023-05-01T15:40:57.537Z,5.60
2023-05-01T15:45:59.742Z,4.65
2023-05-01T15:51:01.322Z,4.95
2023-05-01T15:56:03.060Z,4.55
2023-05-01T16:01:04.462Z,8.70
2023-05-01T16:06:06.197Z,6.95
2023-05-01T16:11:10.636Z,5.75
2023-05-01T16:16:14.364Z,3.22
2023-05-01T16:21:17.976Z,4.53
2023-05-01T16:26:30.088Z,8.27
2023-05-01T16:31:41.934Z,5.88
2023-05-01T16:36:43.864Z,8.10
2023-05-01T16:41:46.485Z,7.80
2023-05-01T16:46:51.960Z,4.70
2023-05-01T16:51:58.255Z,5.55
2023-05-01T16:56:59.685Z,9.35
2023-05-01T17:02:01.087Z,6.57
2023-05-01T17:07:02.635Z,8.15
2023-05-01T17:12:05.367Z,6.13
2023-05-01T17:17:09.472Z,6.90
2023-05-01T17:22:11.886Z,8.63
2023-05-01T17:27:13.634Z,3.85
2023-05-01T17:32:20.323Z,3.40
2023-05-01T17:37:34.755Z,4.68
2023-05-01T17:42:37.109Z,3.25
2023-05-01T17:47:42.792Z,5.30
2023-05-01T17:52:45.065Z,5.00
2023-05-01T17:57:47.404Z,2.58
2023-05-01T18:02:50.244Z,6.70
2023-05-01T18:07:51.679Z,4.03
2023-05-01T18:12:53.097Z,5.78
2023-05-01T18:17:54.508Z,5.82
2023-05-01T18:22:55.984Z,4.22
2023-05-01T18:27:58.624Z,3.33
2023-05-01T18:33:00.142Z,8.85
2023-05-01T18:38:01.706Z,7.80
2023-05-01T18:43:03.472Z,4.32
2023-05-01T18:48:05.202Z,6.07
2023-05-01T18:53:06.621Z,6.65
2023-05-01T18:58:07.969Z,4.88
2023-05-01T19:03:09.512Z,9.52
2023-05-01T19:08:10.906Z,5.20
2023-05-01T19:13:12.305Z,6.28
2023-05-01T19:18:14.472Z,7.88
2023-05-01T19:23:16.074Z,4.47
2023-05-01T19:28:17.475Z,7.00
2023-05-01T19:33:19.161Z,11.45
2023-05-01T19:38:20.709Z,7.30
2023-05-01T19:43:22.081Z,7.47
2023-05-01T19:48:23.432Z,6.30
2023-05-01T19:53:25.106Z,9.05
2023-05-01T19:58:27.527Z,9.13
2023-05-01T20:03:28.993Z,9.90
2023-05-01T20:08:30.454Z,10.45
2023-05-01T20:13:31.795Z,12.43
2023-05-01T20:18:33.127Z,10.63
2023-05-01T20:23:34.797Z,16.27
2023-05-01T20:28:36.432Z,13.88
2023-05-01T20:33:37.745Z,11.95
2023-05-01T20:38:40.329Z,16.70
2023-05-01T20:43:41.658Z,17.25
2023-05-01T20:48:43.945Z,20.33
2023-05-01T20:53:45.302Z,19.95
2023-05-01T20:58:46.681Z,17.65
2023-05-01T21:03:48.182Z,19.67
2023-05-01T21:08:49.677Z,21.55
2023-05-01T21:13:51.049Z,21.35
2023-05-01T21:18:52.487Z,18.33
2023-05-01T21:23:53.838Z,21.17
2023-05-01T21:28:55.339Z,24.10
2023-05-01T21:34:00.146Z,24.17
2023-05-01T21:39:01.525Z,21.38
2023-05-01T21:44:03.404Z,21.02
2023-05-01T21:49:04.752Z,22.45
2023-05-01T21:54:06.115Z,23.52
2023-05-01T21:59:07.616Z,22.33
2023-05-01T22:04:09.387Z,26.73
2023-05-01T22:09:10.995Z,24.17
2023-05-01T22:14:12.373Z,25.73
2023-05-01T22:19:15.313Z,27.55
2023-05-01T22:24:16.678Z,30.00
2023-05-01T22:29:18.656Z,28.75
2023-05-01T22:34:20.034Z,25.25
2023-05-01T22:39:22.175Z,29.77
2023-05-01T22:44:23.638Z,28.10
2023-05-01T22:49:28.616Z,28.00
2023-05-01T22:54:30.010Z,23.88
2023-05-01T22:59:31.457Z,27.60
2023-05-01T23:04:33.408Z,22.98
2023-05-01T23:09:34.786Z,25.23
2023-05-01T23:14:41.680Z,31.70
2023-05-01T23:19:46.223Z,29.90
2023-05-01T23:24:48.378Z,33.65
2023-05-01T23:29:57.574Z,29.38
2023-05-01T23:35:04.766Z,38.40
2023-05-01T23:40:06.869Z,32.33
2023-05-01T23:45:08.415Z,27.42
2023-05-01T23:50:09.908Z,30.83
2023-05-01T23:55:11.330Z,33.40
